Time;durP1;ratioP1;P1;durP2;ratioP2;P2;SDS_P1;SDS_P2;PMS_P1;PMS_P2;Temp;Humidity;BMP_temperature;BMP_pressure;BME280_temperature;BME280_humidity;BME280_pressure;Samples;Min_cycle;Max_cycle;Signal;HPM_P1;HPM_P2
2022/10/17 00:01:57;;;;;;;31.42;22.98;;;;;;;16.12;100.00;100972.94;2850155;81;21600;-89
2022/10/17 00:05:58;;;;;;;32.03;24.00;;;;;;;16.20;100.00;100980.75;2827608;81;21573;-90
2022/10/17 00:09:59;;;;;;;30.75;23.42;;;;;;;16.32;100.00;100989.47;2850763;82;21722;-89
2022/10/17 00:14:01;;;;;;;30.35;23.65;;;;;;;16.41;100.00;100996.15;2857768;82;21119;-90
2022/10/17 00:18:03;;;;;;;30.90;22.82;;;;;;;16.51;100.00;101007.37;2833811;82;21041;-89
2022/10/17 00:22:04;;;;;;;41.33;23.45;;;;;;;16.58;100.00;101008.45;2859401;82;21534;-88
2022/10/17 00:26:06;;;;;;;32.83;26.87;;;;;;;16.58;100.00;101003.09;2850869;82;21154;-87
2022/10/17 00:30:11;;;;;;;29.45;24.27;;;;;;;16.56;100.00;101012.63;2857403;82;21166;-88
2022/10/17 00:34:12;;;;;;;;;;;;;;;16.59;100.00;101004.77;2861087;82;21691;-88
2022/10/17 00:38:13;;;;;;;28.98;23.67;;;;;;;16.60;100.00;101003.78;2857774;82;20148;-89
2022/10/17 00:42:15;;;;;;;33.45;26.07;;;;;;;16.44;100.00;101002.22;2816327;82;21558;-88
2022/10/17 00:46:16;;;;;;;29.40;22.98;;;;;;;16.41;100.00;101007.40;2863685;82;21037;-89
2022/10/17 00:50:19;;;;;;;29.07;22.48;;;;;;;16.38;100.00;101003.16;2847130;82;21065;-89
2022/10/17 00:54:25;;;;;;;36.98;26.82;;;;;;;16.40;100.00;101008.36;2828751;82;21088;-89
2022/10/17 00:58:26;;;;;;;37.05;27.37;;;;;;;16.27;100.00;101006.00;2874043;81;21686;-89
2022/10/17 01:02:27;;;;;;;33.88;27.07;;;;;;;16.13;100.00;101001.47;2846229;82;21014;-89
2022/10/17 01:06:28;;;;;;;36.10;24.87;;;;;;;16.05;100.00;101004.52;2811048;83;21029;-89
2022/10/17 01:10:41;;;;;;;33.58;26.87;;;;;;;16.04;100.00;101000.98;2810891;83;21136;-89
2022/10/17 01:14:59;;;;;;;31.00;24.87;;;;;;;16.06;100.00;100999.50;2792961;83;21084;-89
2022/10/17 01:19:26;;;;;;;33.05;25.00;;;;;;;16.07;100.00;100991.80;2834819;82;21041;-89
2022/10/17 01:24:10;;;;;;;33.55;24.72;;;;;;;16.15;100.00;100991.09;2849113;82;21029;-89
2022/10/17 01:28:52;;;;;;;38.25;26.27;;;;;;;16.18;100.00;100990.79;2857512;81;21069;-89
2022/10/17 01:33:11;;;;;;;35.28;28.17;;;;;;;16.23;100.00;100984.48;2856185;83;21108;-88
2022/10/17 01:37:44;;;;;;;31.40;24.57;;;;;;;16.25;100.00;100985.17;2852100;81;21041;-89
2022/10/17 01:42:00;;;;;;;31.17;26.00;;;;;;;16.13;100.00;100993.42;2852865;81;21002;-88
2022/10/17 01:46:12;;;;;;;29.75;26.23;;;;;;;16.19;100.00;101001.88;2869928;80;21023;-89
2022/10/17 01:50:31;;;;;;;29.05;25.27;;;;;;;16.22;100.00;100998.41;2856384;81;21106;-89
2022/10/17 01:54:41;;;;;;;36.75;26.87;;;;;;;16.15;100.00;101003.16;2861392;82;21003;-89
2022/10/17 01:58:52;;;;;;;35.28;26.70;;;;;;;16.20;100.00;101012.96;2879754;81;21172;-89
2022/10/17 02:03:04;;;;;;;38.40;30.10;;;;;;;16.24;100.00;100995.56;2867997;82;21587;-89
2022/10/17 02:07:11;;;;;;;38.13;30.15;;;;;;;16.28;100.00;100999.64;2854584;82;21186;-88
2022/10/17 02:11:21;;;;;;;33.08;25.12;;;;;;;16.31;100.00;101019.52;2857558;82;21032;-89
2022/10/17 02:15:43;;;;;;;33.23;27.07;;;;;;;16.32;100.00;101022.55;2854710;82;21441;-89
2022/10/17 02:20:28;;;;;;;38.10;25.27;;;;;;;16.31;100.00;101020.85;2857501;81;21081;-88
2022/10/17 02:25:01;;;;;;;31.82;27.25;;;;;;;16.31;100.00;101011.94;2786264;82;21069;-88
2022/10/17 02:29:10;;;;;;;30.90;25.85;;;;;;;16.25;100.00;101018.25;2855861;81;21112;-90
2022/10/17 02:33:23;;;;;;;31.77;24.75;;;;;;;16.21;100.00;101021.36;2833355;82;21600;-89
2022/10/17 02:37:28;;;;;;;29.37;22.82;;;;;;;16.11;100.00;101024.92;2823113;82;21584;-89
2022/10/17 02:41:31;;;;;;;35.28;25.60;;;;;;;15.89;100.00;101023.39;2850233;82;21600;-89
2022/10/17 02:45:35;;;;;;;30.60;24.85;;;;;;;15.68;100.00;101031.06;2856336;82;21079;-88
2022/10/17 02:49:40;;;;;;;30.37;25.05;;;;;;;15.48;100.00;101036.90;2877261;81;21767;-89
2022/10/17 02:53:59;;;;;;;32.45;25.60;;;;;;;15.37;100.00;101043.74;2874150;81;21074;-90
2022/10/17 02:58:05;;;;;;;33.25;26.30;;;;;;;15.32;100.00;101040.13;2859773;80;21373;-90
2022/10/17 03:02:07;;;;;;;33.48;24.05;;;;;;;15.33;100.00;101036.46;2861340;81;21654;-91
2022/10/17 03:06:08;;;;;;;32.48;25.12;;;;;;;15.21;100.00;101034.88;2856580;81;21706;-89
2022/10/17 03:10:09;;;;;;;35.05;25.82;;;;;;;15.07;100.00;101038.80;2833327;81;21501;-90
2022/10/17 03:14:10;;;;;;;37.30;26.02;;;;;;;14.98;100.00;101029.75;2858105;81;21013;-92
2022/10/17 03:18:11;;;;;;;37.42;28.57;;;;;;;14.99;100.00;101037.66;2843249;81;21026;-91
2022/10/17 03:22:13;;;;;;;36.73;25.30;;;;;;;15.08;100.00;101045.38;2800376;83;21466;-89
2022/10/17 03:26:14;;;;;;;34.48;25.43;;;;;;;15.10;100.00;101043.41;2808390;83;20978;-90
2022/10/17 03:30:15;;;;;;;34.50;25.97;;;;;;;15.02;100.00;101044.56;2807809;83;21023;-88
2022/10/17 03:34:17;;;;;;;32.70;26.55;;;;;;;14.90;100.00;101046.50;2806697;82;21008;-89
2022/10/17 03:38:18;;;;;;;31.65;23.40;;;;;;;14.82;100.00;101039.64;2849790;81;21026;-91
2022/10/17 03:42:19;;;;;;;30.20;25.45;;;;;;;14.71;100.00;101053.47;2885242;81;21039;-90
2022/10/17 03:46:21;;;;;;;35.13;26.73;;;;;;;14.51;100.00;101051.65;2848026;81;21065;-90
2022/10/17 03:50:22;;;;;;;35.63;26.10;;;;;;;14.39;100.00;101060.25;2844697;81;21044;-91
2022/10/17 03:54:23;;;;;;;52.40;26.70;;;;;;;14.37;100.00;101060.41;2813730;81;21032;-90
2022/10/17 03:58:24;;;;;;;39.20;28.35;;;;;;;14.44;100.00;101056.68;2849427;81;21639;-90
2022/10/17 04:02:25;;;;;;;37.17;28.23;;;;;;;14.54;100.00;101058.94;2792857;81;21087;-90
2022/10/17 04:06:26;;;;;;;40.73;29.12;;;;;;;14.60;100.00;101060.71;2839220;81;21585;-89
2022/10/17 04:10:28;;;;;;;39.13;26.45;;;;;;;14.60;100.00;101061.58;2855609;81;21030;-91
2022/10/17 04:14:29;;;;;;;41.95;27.60;;;;;;;14.59;100.00;101073.27;2837185;81;21039;-91
2022/10/17 04:18:30;;;;;;;36.90;25.20;;;;;;;14.38;100.00;101075.95;2858177;82;21068;-90
2022/10/17 04:22:32;;;;;;;32.63;27.07;;;;;;;14.21;100.00;101075.56;2854261;81;20969;-91
2022/10/17 04:26:33;;;;;;;38.78;28.62;;;;;;;13.88;100.00;101070.76;2851603;81;20979;-91
2022/10/17 04:30:34;;;;;;;35.88;28.42;;;;;;;13.60;100.00;101069.52;2837489;81;21042;-90
2022/10/17 04:34:35;;;;;;;43.50;31.07;;;;;;;13.45;100.00;101065.80;2851798;81;21060;-91
2022/10/17 04:38:36;;;;;;;41.85;28.38;;;;;;;13.37;100.00;101068.22;2886356;81;21042;-91
2022/10/17 04:42:37;;;;;;;46.83;32.00;;;;;;;13.19;100.00;101066.06;2880509;81;21632;-89
2022/10/17 04:46:38;;;;;;;45.92;31.00;;;;;;;13.17;100.00;101066.69;2888224;82;21574;-91
2022/10/17 04:50:39;;;;;;;41.40;30.75;;;;;;;13.26;100.00;101066.39;2848165;82;21071;-90
2022/10/17 04:54:40;;;;;;;38.33;30.27;;;;;;;13.26;100.00;101061.91;2865970;81;21062;-91
2022/10/17 04:58:43;;;;;;;38.58;29.48;;;;;;;13.19;100.00;101060.72;2854320;82;21125;-91
2022/10/17 05:02:44;;;;;;;43.58;28.67;;;;;;;13.24;100.00;101061.66;2820284;83;21052;-89
2022/10/17 05:06:45;;;;;;;40.15;28.65;;;;;;;13.33;100.00;101073.44;2800927;83;21153;-91
2022/10/17 05:10:46;;;;;;;40.35;28.05;;;;;;;13.50;100.00;101075.61;2818331;83;21069;-90
2022/10/17 05:14:47;;;;;;;36.53;29.30;;;;;;;13.67;100.00;101082.73;2810665;83;21058;-90
2022/10/17 05:18:51;;;;;;;33.53;26.73;;;;;;;13.79;100.00;101087.08;2831689;83;21054;-91
2022/10/17 05:22:52;;;;;;;39.70;27.82;;;;;;;13.93;100.00;101096.62;2846578;82;21037;-91
2022/10/17 05:26:53;;;;;;;33.55;25.32;;;;;;;14.02;100.00;101095.01;2822600;82;21038;-91
2022/10/17 05:30:55;;;;;;;43.52;25.72;;;;;;;14.08;100.00;101090.47;2850503;81;21068;-91
2022/10/17 05:34:56;;;;;;;39.18;26.95;;;;;;;14.01;100.00;101100.00;2857526;81;21015;-89
2022/10/17 05:38:58;;;;;;;39.63;25.92;;;;;;;13.71;100.00;101102.89;2866422;81;21043;-91
2022/10/17 05:42:59;;;;;;;34.40;27.85;;;;;;;13.63;100.00;101106.70;2864421;82;21317;-91
2022/10/17 05:47:00;;;;;;;54.10;28.77;;;;;;;13.73;100.00;101112.97;2816789;83;21027;-91
2022/10/17 05:51:06;;;;;;;34.50;25.40;;;;;;;13.84;100.00;101119.62;2818348;83;21094;-91
2022/10/17 05:55:08;;;;;;;;;;;;;;;13.97;100.00;101125.31;2859507;82;21038;-91
2022/10/17 05:59:09;;;;;;;59.70;53.78;;;;;;;14.09;100.00;101114.91;2860830;81;20106;-90
2022/10/17 06:03:11;;;;;;;42.08;34.45;;;;;;;14.25;100.00;101122.98;2828855;82;21049;-91
2022/10/17 06:07:12;;;;;;;315.20;201.58;;;;;;;14.39;100.00;101124.02;2852989;82;21038;-90
2022/10/17 06:11:13;;;;;;;111.37;80.10;;;;;;;14.49;100.00;101123.22;2794994;83;20984;-91
2022/10/17 06:15:15;;;;;;;78.87;70.60;;;;;;;14.59;100.00;101128.16;2811343;83;21067;-91
2022/10/17 06:19:16;;;;;;;45.10;39.53;;;;;;;14.73;100.00;101124.79;2812013;83;21085;-89
2022/10/17 06:23:18;;;;;;;37.67;27.48;;;;;;;14.84;100.00;101131.42;2858799;82;21037;-91
2022/10/17 06:27:20;;;;;;;34.25;29.45;;;;;;;15.01;100.00;101134.46;2858296;81;21018;-91
2022/10/17 06:31:21;;;;;;;39.63;27.50;;;;;;;15.22;100.00;101135.25;2866405;81;21077;-90
2022/10/17 06:35:22;;;;;;;29.35;24.92;;;;;;;15.47;100.00;101133.06;2758046;83;21978;-90
2022/10/17 06:39:25;;;;;;;35.13;26.75;;;;;;;15.65;100.00;101140.45;2854439;82;21023;-91
2022/10/17 06:43:27;;;;;;;32.55;23.62;;;;;;;15.78;100.00;101137.02;2856063;82;21082;-88
2022/10/17 06:47:28;;;;;;;38.38;26.93;;;;;;;15.89;100.00;101141.44;2858196;82;20978;-90
2022/10/17 06:51:30;;;;;;;36.58;24.72;;;;;;;15.96;100.00;101144.41;2834606;82;21028;-91
2022/10/17 06:55:32;;;;;;;27.35;22.93;;;;;;;16.00;100.00;101155.21;2853690;82;21648;-90
2022/10/17 06:59:33;;;;;;;33.18;25.37;;;;;;;16.06;100.00;101154.64;2858518;82;21542;-90
2022/10/17 07:03:34;;;;;;;30.17;23.42;;;;;;;16.07;100.00;101154.16;2859026;82;21045;-90
2022/10/17 07:07:35;;;;;;;36.38;28.02;;;;;;;16.14;100.00;101159.30;2858403;82;21116;-91
2022/10/17 07:11:36;;;;;;;26.62;22.93;;;;;;;16.36;100.00;101166.72;2882877;82;20995;-90
2022/10/17 07:15:38;;;;;;;27.82;20.52;;;;;;;16.71;100.00;101162.58;2834067;81;21008;-89
2022/10/17 07:19:39;;;;;;;29.63;22.27;;;;;;;17.01;100.00;101162.52;2793666;82;21545;-91
2022/10/17 07:23:40;;;;;;;28.00;22.13;;;;;;;17.33;100.00;101172.86;2854203;81;21592;-89
2022/10/17 07:27:41;;;;;;;30.30;26.23;;;;;;;17.71;100.00;101172.81;2883259;81;21039;-90
2022/10/17 07:31:44;;;;;;;27.67;20.17;;;;;;;18.11;100.00;101172.92;2858603;82;21005;-91
2022/10/17 07:35:45;;;;;;;33.55;21.25;;;;;;;18.40;100.00;101176.37;2857592;82;21081;-90
2022/10/17 07:39:47;;;;;;;32.35;21.48;;;;;;;18.65;100.00;101174.69;2854681;81;21023;-90
2022/10/17 07:43:48;;;;;;;32.80;22.35;;;;;;;18.84;100.00;101179.53;2865179;81;21048;-91
2022/10/17 07:47:49;;;;;;;29.42;23.38;;;;;;;19.07;100.00;101184.44;2850570;83;21029;-90
2022/10/17 07:51:50;;;;;;;31.07;21.77;;;;;;;19.21;98.70;101181.12;2801551;82;21115;-90
2022/10/17 07:55:51;;;;;;;25.68;20.50;;;;;;;19.38;100.00;101175.81;2813038;82;21018;-90
2022/10/17 07:59:53;;;;;;;25.20;18.27;;;;;;;19.47;99.38;101165.41;2848754;82;21299;-90
2022/10/17 08:03:54;;;;;;;23.32;17.42;;;;;;;19.66;98.68;101160.74;2834794;82;21715;-89
2022/10/17 08:07:55;;;;;;;23.32;18.77;;;;;;;19.87;99.28;101160.79;2860906;82;21026;-90
2022/10/17 08:11:56;;;;;;;26.17;19.35;;;;;;;20.00;95.43;101166.56;2859832;82;21043;-89
2022/10/17 08:16:03;;;;;;;23.52;18.77;;;;;;;20.14;94.93;101163.70;2817651;83;21019;-89
2022/10/17 08:20:05;;;;;;;30.43;19.10;;;;;;;20.39;94.66;101168.61;2853565;82;21041;-90
2022/10/17 08:24:07;;;;;;;19.82;17.40;;;;;;;20.58;92.78;101171.97;2878420;81;21046;-89
2022/10/17 08:28:08;;;;;;;21.97;15.28;;;;;;;20.77;93.40;101167.22;2868579;81;21035;-90
2022/10/17 08:32:09;;;;;;;17.02;14.80;;;;;;;20.94;91.89;101163.50;2890242;80;21027;-90
2022/10/17 08:36:14;;;;;;;21.00;15.38;;;;;;;21.09;91.01;101170.91;2862031;81;20964;-91
2022/10/17 08:40:25;;;;;;;19.07;14.98;;;;;;;21.29;89.42;101164.56;2856621;81;21144;-90
2022/10/17 08:44:55;;;;;;;23.05;16.25;;;;;;;21.47;89.06;101164.33;2887455;80;21103;-89
2022/10/17 08:49:01;;;;;;;24.10;15.88;;;;;;;21.66;89.45;101172.53;2904691;80;21385;-90
2022/10/17 08:53:13;;;;;;;16.27;13.65;;;;;;;21.73;86.69;101157.78;2889081;80;21534;-91
2022/10/17 08:57:16;;;;;;;21.25;13.98;;;;;;;21.91;85.27;101153.45;2895795;80;21042;-90
2022/10/17 09:01:50;;;;;;;16.35;13.65;;;;;;;21.98;84.85;101156.26;2848674;81;21067;-91
2022/10/17 09:06:12;;;;;;;19.17;13.10;;;;;;;22.06;84.42;101161.63;2828697;81;21050;-90
2022/10/17 09:10:48;;;;;;;20.05;14.60;;;;;;;22.17;81.74;101166.28;2852950;82;21077;-90
2022/10/17 09:15:25;;;;;;;20.97;15.95;;;;;;;22.37;83.82;101161.22;2851103;82;21485;-90
2022/10/17 09:19:34;;;;;;;18.25;15.15;;;;;;;22.53;81.75;101156.19;2858681;82;21130;-90
2022/10/17 09:23:53;;;;;;;16.57;14.05;;;;;;;22.71;80.22;101156.36;2818696;82;21027;-90
2022/10/17 09:28:11;;;;;;;14.03;12.45;;;;;;;22.76;79.84;101153.42;2821974;83;21076;-90
2022/10/17 09:32:17;;;;;;;21.42;15.00;;;;;;;22.90;79.25;101152.27;2821670;83;21041;-91
2022/10/17 09:36:32;;;;;;;14.95;12.90;;;;;;;23.00;79.46;101150.11;2852712;83;20990;-89
2022/10/17 09:40:34;;;;;;;16.10;13.97;;;;;;;23.18;80.38;101151.06;2860179;81;21056;-87
2022/10/17 09:44:46;;;;;;;14.85;13.00;;;;;;;23.34;76.05;101154.64;2883937;81;21076;-89
2022/10/17 09:48:59;;;;;;;24.02;15.80;;;;;;;23.47;76.29;101153.45;2878266;81;21059;-91
2022/10/17 09:53:11;;;;;;;28.67;16.40;;;;;;;23.57;76.69;101157.23;2894732;80;21542;-90
2022/10/17 09:57:14;;;;;;;17.20;14.38;;;;;;;23.63;73.40;101156.98;2885172;82;21025;-90
2022/10/17 10:01:27;;;;;;;12.80;11.50;;;;;;;23.66;73.99;101145.73;2844430;82;21060;-90
2022/10/17 10:05:28;;;;;;;18.10;12.33;;;;;;;23.79;73.04;101143.17;2840911;83;21608;-91
2022/10/17 10:09:32;;;;;;;18.80;13.28;;;;;;;23.91;73.67;101150.80;2839302;83;21053;-91
2022/10/17 10:13:34;;;;;;;20.50;14.03;;;;;;;24.02;73.43;101151.69;2858620;82;21014;-91
2022/10/17 10:17:43;;;;;;;17.82;13.58;;;;;;;24.10;70.90;101150.71;2861446;82;20998;-91
2022/10/17 10:21:57;;;;;;;31.50;13.98;;;;;;;24.27;73.16;101151.27;2863920;82;21641;-90
2022/10/17 10:26:06;;;;;;;22.75;14.03;;;;;;;24.34;72.39;101146.72;2860744;81;21095;-90
2022/10/17 10:30:18;;;;;;;17.50;13.45;;;;;;;24.39;71.70;101149.71;2862893;81;21149;-90
2022/10/17 10:34:28;;;;;;;21.80;15.32;;;;;;;24.47;71.18;101150.59;2851915;82;21031;-90
2022/10/17 10:38:32;;;;;;;17.85;12.95;;;;;;;24.53;71.33;101145.21;2818315;83;21036;-89
2022/10/17 10:42:37;;;;;;;26.02;14.38;;;;;;;24.61;73.76;101140.65;2820497;83;21058;-89
2022/10/17 10:46:38;;;;;;;17.73;13.90;;;;;;;24.78;72.47;101133.07;2785925;84;21078;-90
2022/10/17 10:50:56;;;;;;;13.95;12.35;;;;;;;24.74;69.11;101123.57;2819715;83;21078;-89
2022/10/17 10:55:05;;;;;;;17.20;11.75;;;;;;;24.70;69.02;101131.81;2821135;83;21045;-90
2022/10/17 10:59:12;;;;;;;16.60;12.55;;;;;;;24.72;69.78;101126.52;2880974;82;21660;-90
2022/10/17 11:03:18;;;;;;;17.32;13.70;;;;;;;24.86;70.13;101128.81;2865140;82;21111;-91
2022/10/17 11:07:31;;;;;;;15.35;12.47;;;;;;;24.88;69.23;101121.83;2877036;81;21035;-90
2022/10/17 11:11:38;;;;;;;16.87;12.30;;;;;;;24.92;69.01;101118.48;2858181;81;21104;-89
2022/10/17 11:15:47;;;;;;;13.98;11.97;;;;;;;25.06;70.52;101114.47;2856757;82;21097;-89
2022/10/17 11:20:21;;;;;;;17.25;12.30;;;;;;;25.10;69.02;101117.10;2853395;82;21132;-89
2022/10/17 11:24:36;;;;;;;11.85;10.63;;;;;;;25.07;68.51;101110.70;2832145;82;21043;-90
2022/10/17 11:28:37;;;;;;;;;;;;;;;25.08;70.37;101111.87;2827977;82;21015;-90
2022/10/17 11:32:47;;;;;;;18.10;11.48;;;;;;;25.01;70.99;101114.25;2810665;82;20178;-90
2022/10/17 11:36:53;;;;;;;14.63;11.55;;;;;;;25.01;69.07;101106.08;2782882;83;20967;-90
2022/10/17 11:40:58;;;;;;;19.55;13.25;;;;;;;25.02;68.56;101094.98;2896632;81;21011;-89
2022/10/17 11:45:10;;;;;;;15.20;11.83;;;;;;;25.04;69.63;101094.25;2871417;81;21051;-90
2022/10/17 11:49:17;;;;;;;14.75;12.20;;;;;;;25.04;70.00;101096.15;2862578;80;21060;-91
2022/10/17 11:53:25;;;;;;;16.62;11.73;;;;;;;24.98;70.78;101099.69;2849696;81;21031;-90
2022/10/17 11:57:41;;;;;;;17.60;11.48;;;;;;;24.92;67.55;101095.35;2859266;81;21593;-88
2022/10/17 12:01:48;;;;;;;17.85;12.37;;;;;;;24.84;69.67;101094.17;2867510;82;21094;-90
2022/10/17 12:06:00;;;;;;;14.70;12.25;;;;;;;24.85;68.42;101092.27;2810666;83;21099;-90
2022/10/17 12:10:19;;;;;;;23.60;13.70;;;;;;;25.03;68.85;101090.39;2828038;83;21501;-90
2022/10/17 12:14:42;;;;;;;14.07;10.78;;;;;;;25.11;67.96;101092.92;2836435;83;21041;-90
2022/10/17 12:18:46;;;;;;;15.68;11.80;;;;;;;25.27;69.51;101088.17;2859576;82;21017;-90
2022/10/17 12:22:52;;;;;;;13.65;10.53;;;;;;;25.30;66.84;101080.95;2860237;82;20987;-89
2022/10/17 12:26:53;;;;;;;14.45;11.35;;;;;;;25.29;67.55;101082.00;2856141;82;21108;-90
2022/10/17 12:31:04;;;;;;;13.60;11.25;;;;;;;25.32;66.56;101080.22;2859696;81;21015;-90
2022/10/17 12:35:11;;;;;;;25.17;13.25;;;;;;;25.34;67.80;101087.66;2852607;82;21030;-91
2022/10/17 12:39:18;;;;;;;12.45;9.75;;;;;;;25.33;65.90;101089.56;2861884;81;21036;-90
2022/10/17 12:43:33;;;;;;;15.35;10.60;;;;;;;25.39;65.85;101091.99;2877941;82;21064;-90
2022/10/17 12:47:37;;;;;;;13.98;10.80;;;;;;;25.44;67.78;101089.48;2870530;81;21043;-89
2022/10/17 12:52:18;;;;;;;14.45;10.05;;;;;;;25.47;65.45;101089.61;2840765;81;21031;-90
2022/10/17 12:56:30;;;;;;;12.20;8.83;;;;;;;25.53;65.62;101077.91;2815373;82;21010;-90
2022/10/17 13:00:52;;;;;;;14.30;9.50;;;;;;;25.57;67.30;101059.28;2811825;82;21030;-92
2022/10/17 13:05:13;;;;;;;11.18;9.25;;;;;;;25.62;67.34;101056.77;2767420;84;21695;-93
2022/10/17 13:09:28;;;;;;;12.70;9.55;;;;;;;25.69;67.60;101046.70;2791272;83;21011;-92
2022/10/17 13:13:47;;;;;;;13.78;9.25;;;;;;;25.74;66.57;101051.00;2775088;82;21069;-90
2022/10/17 13:17:57;;;;;;;12.68;10.10;;;;;;;25.74;66.89;101055.09;2807841;83;21113;-92
2022/10/17 13:22:02;;;;;;;11.48;9.95;;;;;;;25.78;65.93;101057.73;2784170;83;21111;-90
2022/10/17 13:26:14;;;;;;;11.47;8.33;;;;;;;25.86;68.08;101068.10;2789983;83;21123;-93
2022/10/17 13:30:26;;;;;;;12.70;8.80;;;;;;;25.83;64.27;101065.80;2812489;82;21543;-90
2022/10/17 13:34:27;;;;;;;12.75;8.58;;;;;;;25.88;64.25;101066.86;2869299;80;21614;-89
2022/10/17 13:38:32;;;;;;;15.48;10.13;;;;;;;25.93;65.03;101062.12;2876935;81;21550;-90
2022/10/17 13:42:38;;;;;;;10.87;8.47;;;;;;;25.94;64.29;101061.06;2863662;79;21027;-91
2022/10/17 13:46:40;;;;;;;19.52;10.75;;;;;;;25.83;64.25;101049.45;2830214;83;21023;-90
2022/10/17 13:50:42;;;;;;;8.60;7.70;;;;;;;25.79;64.35;101038.97;2813429;82;21091;-91
2022/10/17 13:54:47;;;;;;;10.82;8.85;;;;;;;25.76;64.25;101042.12;2854993;81;21002;-89
2022/10/17 13:58:55;;;;;;;11.35;8.45;;;;;;;25.79;65.74;101047.15;2883408;80;21064;-91
2022/10/17 14:02:56;;;;;;;12.23;9.28;;;;;;;25.78;63.94;101040.53;2828674;82;21187;-91
2022/10/17 14:06:57;;;;;;;18.23;10.63;;;;;;;25.75;63.73;101039.08;2812136;82;21105;-91
2022/10/17 14:11:00;;;;;;;16.07;9.73;;;;;;;25.84;63.94;101034.78;2887006;81;21161;-90
2022/10/17 14:15:03;;;;;;;15.75;9.08;;;;;;;25.75;65.03;101030.91;2848427;81;21050;-91
2022/10/17 14:19:08;;;;;;;12.63;10.20;;;;;;;25.76;65.47;101031.22;2861865;82;21084;-90
2022/10/17 14:23:31;;;;;;;10.65;8.03;;;;;;;25.72;65.50;101031.30;2859727;80;21026;-91
2022/10/17 14:27:38;;;;;;;14.07;9.23;;;;;;;25.70;66.42;101030.67;2851394;82;21617;-90
2022/10/17 14:31:39;;;;;;;16.40;11.00;;;;;;;25.58;65.37;101033.72;2845085;81;21080;-90
2022/10/17 14:35:50;;;;;;;13.38;9.73;;;;;;;25.43;64.24;101025.69;2863510;81;21012;-91
2022/10/17 14:39:53;;;;;;;14.58;9.48;;;;;;;25.23;64.37;101035.50;2855866;82;21078;-92
2022/10/17 14:44:02;;;;;;;11.60;9.68;;;;;;;25.18;65.03;101033.92;2859225;81;21066;-91
2022/10/17 14:48:16;;;;;;;12.00;9.35;;;;;;;25.00;65.50;101037.20;2855297;82;21069;-91
2022/10/17 14:52:24;;;;;;;10.88;9.78;;;;;;;24.87;67.29;101042.06;2853822;81;21076;-90
2022/10/17 14:56:36;;;;;;;12.23;10.20;;;;;;;24.79;67.12;101031.38;2852645;82;21369;-90
2022/10/17 15:00:37;;;;;;;13.72;10.13;;;;;;;24.65;67.25;101032.63;2860206;82;21034;-91
2022/10/17 15:04:38;;;;;;;18.67;12.05;;;;;;;24.41;66.83;101031.23;2888930;80;21564;-91
2022/10/17 15:08:39;;;;;;;12.55;10.13;;;;;;;24.09;67.39;101023.49;2853814;81;21557;-91
2022/10/17 15:12:40;;;;;;;13.08;9.85;;;;;;;23.90;67.65;101014.14;2794859;82;21791;-91
2022/10/17 15:16:41;;;;;;;15.18;10.05;;;;;;;23.63;69.12;101021.21;2866120;81;21051;-90
2022/10/17 15:20:42;;;;;;;12.50;10.00;;;;;;;23.33;69.99;101015.39;2880281;81;21578;-91
2022/10/17 15:24:47;;;;;;;12.05;9.18;;;;;;;23.03;69.37;101008.65;2862166;81;21118;-91
2022/10/17 15:28:50;;;;;;;20.48;10.32;;;;;;;22.58;70.37;101015.49;2861373;81;21030;-91
2022/10/17 15:32:52;;;;;;;12.03;7.95;;;;;;;22.27;70.74;101016.50;2867047;81;21008;-91
2022/10/17 15:36:53;;;;;;;9.55;8.55;;;;;;;22.01;71.23;101018.28;2889323;80;21025;-92
2022/10/17 15:40:55;;;;;;;11.05;8.65;;;;;;;21.73;71.79;101021.05;2856440;81;21074;-91
2022/10/17 15:44:57;;;;;;;15.43;10.63;;;;;;;21.53;73.06;101028.81;2854933;80;21047;-91
2022/10/17 15:49:03;;;;;;;13.15;10.20;;;;;;;21.39;73.68;101030.40;2874419;81;21047;-91
2022/10/17 15:53:04;;;;;;;13.03;10.88;;;;;;;21.28;73.80;101040.30;2876159;80;21075;-91
2022/10/17 15:57:09;;;;;;;12.95;9.30;;;;;;;21.09;74.02;101022.97;2820706;82;21058;-90
2022/10/17 16:01:29;;;;;;;14.73;11.35;;;;;;;21.03;73.41;101030.94;2859346;80;21003;-90
2022/10/17 16:05:30;;;;;;;16.55;13.32;;;;;;;21.01;73.87;101027.08;2840496;81;21554;-92
2022/10/17 16:09:32;;;;;;;13.30;10.72;;;;;;;20.90;74.70;101031.02;2877921;81;21582;-91
2022/10/17 16:13:33;;;;;;;14.33;10.55;;;;;;;20.85;74.55;101034.77;2884726;80;21027;-90
2022/10/17 16:17:34;;;;;;;14.60;10.05;;;;;;;20.75;74.78;101023.28;2865507;82;21009;-92
2022/10/17 16:21:39;;;;;;;9.95;8.78;;;;;;;20.72;75.20;101027.16;2797345;83;21081;-92
2022/10/17 16:25:40;;;;;;;12.17;10.97;;;;;;;20.72;74.64;101026.33;2855707;81;21043;-94
2022/10/17 16:29:42;;;;;;;23.02;18.42;;;;;;;20.76;74.63;101019.06;2873447;80;21035;-89
2022/10/17 16:33:43;;;;;;;19.73;17.32;;;;;;;20.76;74.64;101022.25;2858826;80;21030;-90
2022/10/17 16:37:44;;;;;;;23.12;19.65;;;;;;;20.69;75.15;101022.11;2843584;82;21006;-90
2022/10/17 16:41:45;;;;;;;17.60;14.25;;;;;;;20.57;76.04;101025.70;2876543;80;21030;-90
2022/10/17 16:45:46;;;;;;;17.05;13.28;;;;;;;20.48;76.41;101024.05;2854090;81;21031;-93
2022/10/17 16:49:47;;;;;;;15.88;11.65;;;;;;;20.41;76.85;101033.36;2860083;80;21040;-90
2022/10/17 16:53:53;;;;;;;16.45;13.43;;;;;;;20.28;77.90;101038.44;2845752;82;21049;-91
2022/10/17 16:57:56;;;;;;;;;;;;;;;20.14;78.53;101035.41;2848540;82;21066;-93
2022/10/17 17:01:57;;;;;;;15.53;12.65;;;;;;;20.00;79.43;101041.52;2839538;81;20148;-93
2022/10/17 17:05:58;;;;;;;18.05;13.93;;;;;;;19.93;79.34;101035.95;2845219;82;21069;-92
2022/10/17 17:09:59;;;;;;;21.05;15.08;;;;;;;19.81;79.71;101042.99;2801930;83;21072;-93
2022/10/17 17:14:01;;;;;;;19.98;14.75;;;;;;;19.78;79.63;101039.81;2808176;83;21070;-92
2022/10/17 17:18:02;;;;;;;17.52;14.30;;;;;;;19.79;79.69;101038.80;2867015;81;21020;-93
2022/10/17 17:22:03;;;;;;;22.37;14.03;;;;;;;19.79;79.37;101039.63;2878471;81;21070;-94
2022/10/17 17:26:15;;;;;;;19.57;12.98;;;;;;;19.80;79.50;101042.66;2885311;80;21062;-92
2022/10/17 17:30:16;;;;;;;14.53;10.70;;;;;;;19.82;79.44;101036.58;2751096;83;21523;-92
2022/10/17 17:34:18;;;;;;;17.90;12.37;;;;;;;19.86;79.22;101048.42;2846734;81;21024;-92
2022/10/17 17:38:19;;;;;;;15.50;10.95;;;;;;;19.80;79.64;101053.45;2858410;81;21046;-92
2022/10/17 17:42:20;;;;;;;17.77;13.18;;;;;;;19.81;79.59;101061.06;2852795;81;21175;-92
2022/10/17 17:46:23;;;;;;;26.57;13.53;;;;;;;19.74;79.93;101062.72;2752132;83;21110;-91
2022/10/17 17:50:24;;;;;;;14.60;10.95;;;;;;;19.75;79.86;101060.36;2795413;84;21063;-92
2022/10/17 17:54:25;;;;;;;15.58;12.88;;;;;;;19.69;80.60;101066.78;2877533;81;21522;-92
2022/10/17 17:58:26;;;;;;;16.10;12.00;;;;;;;19.69;80.37;101070.00;2838336;81;21012;-90
2022/10/17 18:02:27;;;;;;;12.98;10.23;;;;;;;19.60;80.66;101065.09;2845290;81;21085;-91
2022/10/17 18:06:28;;;;;;;13.98;11.10;;;;;;;19.59;80.89;101066.59;2813360;82;21029;-92
2022/10/17 18:10:30;;;;;;;13.43;11.50;;;;;;;19.64;80.82;101068.28;2850761;82;21010;-88
2022/10/17 18:14:31;;;;;;;17.62;11.75;;;;;;;19.54;81.32;101058.50;2804107;82;21076;-91
2022/10/17 18:18:35;;;;;;;15.72;12.45;;;;;;;19.55;81.31;101054.79;2771573;83;21086;-92
2022/10/17 18:22:36;;;;;;;12.95;11.50;;;;;;;19.49;81.53;101052.77;2863044;81;21157;-93
2022/10/17 18:26:37;;;;;;;25.97;12.20;;;;;;;19.44;81.84;101054.27;2852483;82;20985;-93
2022/10/17 18:30:39;;;;;;;15.80;11.95;;;;;;;19.42;81.69;101046.33;2849377;81;21050;-91
2022/10/17 18:34:40;;;;;;;17.65;12.15;;;;;;;19.48;81.22;101052.42;2786737;82;21074;-91